»·PEaware :: AAY2608 KLAS-KSAN

AAY2608 :: KLAS-KSAN

FLIGHT INFORMATION

Flight Status: Arrived
Operator:
Allegiant Air
More flights by this operator :: More flights under this callsign
Pilot: Luc P. (3613)
Aircraft: AIRBUS A319
(A319)
More flights by this aircraft type
Origin: KLAS McCarran Intl
United States
Destination: KSAN San Diego Intl-Lindbergh
United States
More flights between these airports :: More routes between these airports
Route: BOACH8 LVELL LUCKI1
File this flight plan on PilotEdge
Remarks: PBN / A1B1C1D1O1S1 DOF / 200617 REG / N309NV SEL / ALHD OPR / AAY PER / C RMK / TCAS)
Altitude:
(Current/Filed)
26,000ft
Speed:
(Current/Filed)
397kts
Departed: 17-Jun-20 09:51 AM
Arrived: 17-Jun-20 10:41 AM
Distance/Time
Traveled:
225nm/0:50
Distance/Time
To Go:
Arrived

Flight Plot

Page will automatically refresh every two minutes.

Flight plan parsing failed; only flown route is shown


Map Options




Map Legend


Flown Route
Filed Route
Departure Airport
Arrival Airport
Navaid (VOR, NDB)
Fix

Horizontal Profiles

Position Reports

Time Latitude Longitude Heading Altitude Ground
Speed
17-Jun-20 09:22 36.086942 -115.153253 159 2106ft 0kts
17-Jun-20 09:23 36.086942 -115.153253 159 2106ft 0kts
17-Jun-20 09:24 36.086942 -115.153253 159 2106ft 0kts
17-Jun-20 09:25 36.086942 -115.153253 159 2106ft 0kts
17-Jun-20 09:26 36.086942 -115.153253 159 2106ft 0kts
17-Jun-20 09:27 36.086942 -115.153253 159 2106ft 0kts
17-Jun-20 09:28 36.086942 -115.153253 159 2106ft 0kts
17-Jun-20 09:29 36.086942 -115.153253 159 2106ft 0kts
17-Jun-20 09:30 36.086942 -115.153253 159 2106ft 0kts
17-Jun-20 09:31 36.086942 -115.153253 159 2106ft 0kts
17-Jun-20 09:32 36.086942 -115.153253 159 2106ft 0kts
17-Jun-20 09:33 36.086942 -115.153253 159 2106ft 0kts
17-Jun-20 09:34 36.086942 -115.153253 159 2106ft 0kts
17-Jun-20 09:35 36.086942 -115.153253 159 2106ft 0kts
17-Jun-20 09:36 36.086943 -115.153253 159 2106ft 0kts
17-Jun-20 09:37 36.087471 -115.153501 159 2106ft 2kts
17-Jun-20 09:38 36.087880 -115.153229 267 2105ft 0kts
17-Jun-20 09:39 36.087877 -115.153138 270 2104ft 0kts
17-Jun-20 09:40 36.087877 -115.153138 270 2104ft 0kts
17-Jun-20 09:41 36.087877 -115.153308 269 2105ft 1kts
17-Jun-20 09:42 36.087854 -115.154408 260 2108ft 4kts
17-Jun-20 09:43 36.087615 -115.155897 271 2113ft 2kts
17-Jun-20 09:44 36.087622 -115.156991 270 2118ft 7kts
17-Jun-20 09:45 36.085917 -115.158586 205 2128ft 11kts
17-Jun-20 09:46 36.082722 -115.160410 204 2142ft 13kts
17-Jun-20 09:47 36.078968 -115.162556 204 2158ft 14kts
17-Jun-20 09:48 36.075146 -115.164738 204 2175ft 13kts
17-Jun-20 09:49 36.074511 -115.167290 2 2185ft 9kts
17-Jun-20 09:50 36.099381 -115.153066 10 3294ft 153kts
17-Jun-20 09:51 36.115940 -115.199466 264 5753ft 213kts
17-Jun-20 09:52 36.104827 -115.280951 238 8666ft 268kts
17-Jun-20 09:53 36.035683 -115.324079 200 9997ft 290kts
17-Jun-20 09:54 35.960070 -115.359910 203 10311ft 306kts
17-Jun-20 09:55 35.880735 -115.374181 166 14451ft 307kts
17-Jun-20 09:56 35.797485 -115.341071 167 17466ft 324kts
17-Jun-20 09:57 35.709966 -115.307015 168 18974ft 331kts
17-Jun-20 09:58 35.620525 -115.296640 187 19251ft 333kts
17-Jun-20 09:59 35.528840 -115.300537 187 22182ft 335kts
17-Jun-20 10:00 35.434806 -115.304269 187 24535ft 344kts
17-Jun-20 10:01 35.336682 -115.308210 187 25942ft 369kts
17-Jun-20 10:02 35.229829 -115.312431 187 25945ft 392kts
17-Jun-20 10:03 35.120647 -115.316677 187 25945ft 392kts
17-Jun-20 10:04 35.011820 -115.320952 187 25944ft 392kts
17-Jun-20 10:05 34.903224 -115.325229 186 25945ft 392kts
17-Jun-20 10:06 34.794499 -115.331331 193 25948ft 389kts
17-Jun-20 10:07 34.691307 -115.369923 204 25957ft 391kts
17-Jun-20 10:08 34.591812 -115.413600 204 25962ft 371kts
17-Jun-20 10:09 34.494985 -115.455914 204 25962ft 371kts
17-Jun-20 10:10 34.398355 -115.497998 204 25962ft 370kts
17-Jun-20 10:11 34.303869 -115.545991 213 25964ft 368kts
17-Jun-20 10:12 34.215756 -115.609222 211 25962ft 371kts
17-Jun-20 10:13 34.120591 -115.657258 205 25950ft 370kts
17-Jun-20 10:14 34.025298 -115.702488 204 25932ft 369kts
17-Jun-20 10:15 33.929864 -115.747383 204 25927ft 369kts
17-Jun-20 10:17 33.834827 -115.793686 205 25927ft 369kts
17-Jun-20 10:18 33.739921 -115.839666 204 25927ft 369kts
17-Jun-20 10:19 33.642826 -115.885010 204 25161ft 379kts
17-Jun-20 10:20 33.544583 -115.931144 207 24156ft 380kts
17-Jun-20 10:21 33.471966 -116.018207 236 23154ft 374kts
17-Jun-20 10:22 33.413645 -116.119331 236 21848ft 365kts
17-Jun-20 10:23 33.356540 -116.217363 236 20082ft 354kts
17-Jun-20 10:24 33.278263 -116.285181 209 18274ft 349kts
17-Jun-20 10:25 33.192330 -116.335089 208 16496ft 338kts
17-Jun-20 10:26 33.107974 -116.382796 209 14564ft 337kts
17-Jun-20 10:27 33.026747 -116.431549 208 12938ft 319kts
17-Jun-20 10:28 32.958743 -116.491302 221 11693ft 298kts
17-Jun-20 10:29 32.896453 -116.554215 221 10223ft 287kts
17-Jun-20 10:30 32.838686 -116.612134 222 9302ft 267kts
17-Jun-20 10:31 32.782497 -116.669173 225 8025ft 262kts
17-Jun-20 10:32 32.744297 -116.740073 241 6508ft 261kts
17-Jun-20 10:32 32.716124 -116.799656 241 6028ft 228kts
17-Jun-20 10:34 32.688434 -116.878883 250 5063ft 222kts
17-Jun-20 10:35 32.673907 -116.946500 284 3853ft 205kts
17-Jun-20 10:35 32.687063 -116.997176 286 3135ft 184kts
17-Jun-20 10:37 32.702576 -117.061133 284 2188ft 156kts
17-Jun-20 10:37 32.711762 -117.097469 284 1733ft 132kts
17-Jun-20 10:38 32.721646 -117.139842 282 961ft 131kts
17-Jun-20 10:39 32.731639 -117.181735 283 45ft 126kts
17-Jun-20 10:40 32.734698 -117.198568 149 26ft 3kts
17-Jun-20 10:41 32.734377 -117.198043 113 26ft 0kts
17-Jun-20 10:42 32.733828 -117.198105 206 26ft 2kts

Navigation Log

Ident Type
Flight plan parsing failed, navigation log unavailable